sensor_id;sensor_type;location;lat;lon;timestamp;pressure;altitude;pressure_sealevel;temperature;humidity
71642;BME280;60657;50.122;14.468;2023-02-28T00:03:01;99434.9502771343;;;0.8709086747539487;70.29129472800794
71642;BME280;60657;50.122;14.468;2023-02-28T00:06:18;99440.7044666293;;;0.9670405127031358;70.14251926451514
71642;BME280;60657;50.122;14.468;2023-02-28T00:09:34;99439.40127921636;;;0.9510185397116047;70.10246433203632
71642;BME280;60657;50.122;14.468;2023-02-28T00:12:51;99434.26023878383;;;0.9163042648966169;70.00518806744488
71642;BME280;60657;50.122;14.468;2023-02-28T00:16:09;99430.04017994134;;;0.873579003585867;70.27985046158541
71642;BME280;60657;50.122;14.468;2023-02-28T00:19:27;99432.79820128201;;;0.806820782787824;70.84634164950026
71642;BME280;60657;50.122;14.468;2023-02-28T00:22:43;99439.55096847635;;;0.8842603189135545;70.53734645609217
71642;BME280;60657;50.122;14.468;2023-02-28T00:26:00;99437.4740785776;;;0.8522163729304921;70.621271076524
71642;BME280;60657;50.122;14.468;2023-02-28T00:29:17;99443.5387838039;;;0.9376668955519918;70.29320210574502
71642;BME280;60657;50.122;14.468;2023-02-28T00:32:32;99440.16219187836;;;0.9082932784008548;70.43244068055238
71642;BME280;60657;50.122;14.468;2023-02-28T00:35:48;99436.7923239808;;;1.0391393911650297;70.1940184634165
71642;BME280;60657;50.122;14.468;2023-02-28T00:39:04;99443.92637632403;;;0.9670405127031358;70.27412832837415
71642;BME280;60657;50.122;14.468;2023-02-28T00:42:20;99446.45874913283;;;0.9643701838712104;70.37331197070267
71642;BME280;60657;50.122;14.468;2023-02-28T00:45:35;99441.01254911433;;;1.0364690623331043;70.15587090867476
71642;BME280;60657;50.122;14.468;2023-02-28T00:48:51;99440.23990356685;;;0.9296559090562297;70.64415960936904
71642;BME280;60657;50.122;14.468;2023-02-28T00:52:07;99437.63636069407;;;0.9616998550392921;70.51445792324712
71642;BME280;60657;50.122;14.468;2023-02-28T00:55:23;99433.48698069113;;;0.9082932784008548;70.89593347066453
71642;BME280;60657;50.122;14.468;2023-02-28T00:58:39;99443.46102143486;;;0.8308537422751172;70.92454413672084
71642;BME280;60657;50.122;14.468;2023-02-28T01:01:55;99436.78566655026;;;0.7694361791409179;71.36514839398795
71642;BME280;60657;50.122;14.468;2023-02-28T01:05:10;99431.95412411053;;;0.7640955214770742;71.30029755092698
71642;BME280;60657;50.122;14.468;2023-02-28T01:08:26;99434.9502771343;;;0.9082932784008548;71.04280155642023
71642;BME280;60657;50.122;14.468;2023-02-28T01:11:44;99437.55943140165;;;0.924315251392386;71.09620813305867
71642;BME280;60657;50.122;14.468;2023-02-28T01:15:00;99437.32815559309;;;0.9136339360646986;70.95506218051423
71642;BME280;60657;50.122;14.468;2023-02-28T01:18:18;99431.18760309977;;;0.8415350576028047;71.2545204852369
71642;BME280;60657;50.122;14.468;2023-02-28T01:21:35;99431.79879159963;;;0.8628976882581796;71.25642786297398
71642;BME280;60657;50.122;14.468;2023-02-28T01:24:51;99428.19807705446;;;0.9082932784008548;71.20683604180972
71642;BME280;60657;50.122;14.468;2023-02-28T01:28:06;99436.01929555096;;;0.8628976882581796;70.98176546883344
71642;BME280;60657;50.122;14.468;2023-02-28T01:31:22;99434.64132962868;;;0.8415350576028047;71.21255817502099
71642;BME280;60657;50.122;14.468;2023-02-28T01:34:39;99437.62979163822;;;0.9163042648966169;71.11146715495536
71642;BME280;60657;50.122;14.468;2023-02-28T01:37:55;99433.40920782983;;;0.8281834134431989;70.93980315861754
71642;BME280;60657;50.122;14.468;2023-02-28T01:41:14;99435.56275515477;;;0.9269855802243043;70.72808422980087
71642;BME280;60657;50.122;14.468;2023-02-28T01:45:07;99437.7132086545;;;0.9990844586861982;70.37521934843977
71642;BME280;60657;50.122;14.468;2023-02-28T01:48:36;99431.0379206285;;;0.9269855802243043;70.16922255283437
71642;BME280;60657;50.122;14.468;2023-02-28T01:51:56;99427.73877035562;;;0.983062485694667;69.8392462043183
71642;BME280;60657;50.122;14.468;2023-02-28T01:55:14;99430.88418339383;;;1.0097657740138857;69.37384603646906
71642;BME280;60657;50.122;14.468;2023-02-28T01:58:34;99415.92365507329;;;0.9563591973754484;69.43869687953003
71642;BME280;60657;50.122;14.468;2023-02-28T02:01:52;99423.28830203411;;;0.8869306477454799;69.56267643244068
71642;BME280;60657;50.122;14.468;2023-02-28T02:05:09;99418.45539687629;;;0.8789196612497108;69.52262149996186
71642;BME280;60657;50.122;14.468;2023-02-28T02:08:29;99414.08196702575;;;0.8709086747539487;69.31662470435646
71642;BME280;60657;50.122;14.468;2023-02-28T02:11:45;99422.05818726955;;;0.8602273594262613;69.19645990691997
71642;BME280;60657;50.122;14.468;2023-02-28T02:15:03;99416.3823675647;;;0.8495460440985738;69.131609063859
71642;BME280;60657;50.122;14.468;2023-02-28T02:18:29;99418.66926964295;;;0.6359197375448247;69.69619287403677
71642;BME280;60657;50.122;14.468;2023-02-28T02:24:10;99420.51393127632;;;0.6733043411917308;69.27656977187762
71642;BME280;60657;50.122;14.468;2023-02-28T02:27:57;99418.51240844557;;;0.638590066376743;69.6332494087129
71642;BME280;60657;50.122;14.468;2023-02-28T02:31:33;99407.69666394607;;;0.6012054627298369;69.90791180285343
71642;BME280;60657;50.122;14.468;2023-02-28T02:35:12;99417.43239807355;;;0.5825131609063874;69.99374380102235
71642;BME280;60657;50.122;14.468;2023-02-28T02:38:32;99417.74680040465;;;0.6492713817044304;69.53597314412146
71642;BME280;60657;50.122;14.468;2023-02-28T02:41:59;99425.02953564061;;;0.5905241474021494;68.89890897993439
71642;BME280;60657;50.122;14.468;2023-02-28T02:45:22;99420.73008889782;;;0.5851834897383057;69.00762951094835
71642;BME280;60657;50.122;14.468;2023-02-28T02:48:42;99430.48670988188;;;0.6359197375448247;68.84168764782177
71642;BME280;60657;50.122;14.468;2023-02-28T02:52:03;99414.13475375707;;;0.5477988860913996;68.34576943617914
71642;BME280;60657;50.122;14.468;2023-02-28T02:55:23;99416.66702249486;;;0.5664911879148562;68.37819485770962
71642;BME280;60657;50.122;14.468;2023-02-28T02:58:41;99425.47923448426;;;0.5371175707637121;68.3667505912871
71642;BME280;60657;50.122;14.468;2023-02-28T03:02:00;99419.41157085018;;;0.48638132295720027;68.28854810406654
71642;BME280;60657;50.122;14.468;2023-02-28T03:05:21;99421.41644855282;;;0.5451285572594813;68.22369726100557
71642;BME280;60657;50.122;14.468;2023-02-28T03:08:41;99431.07184218723;;;0.44365606164645044;68.20653086137179
71642;BME280;60657;50.122;14.468;2023-02-28T03:11:57;99426.61208813281;;;0.4703593499656691;68.01007095445182
71642;BME280;60657;50.122;14.468;2023-02-28T03:15:14;99433.00772112703;;;0.37155718318455655;67.54467078660258
71642;BME280;60657;50.122;14.468;2023-02-28T03:18:42;99431.96280151064;;;0.3421835660334196;67.92996108949416
71642;BME280;60657;50.122;14.468;2023-02-28T03:22:13;99431.48038317166;;;0.31548027771420095;67.85938811322194
71642;BME280;60657;50.122;14.468;2023-02-28T03:25:38;99427.33919446183;;;0.3475242236972633;67.86701762417029
71642;BME280;60657;50.122;14.468;2023-02-28T03:29:13;99445.87069490089;;;0.19798580910963892;68.08827344167238
71642;BME280;60657;50.122;14.468;2023-02-28T03:32:38;99440.36495492638;;;0.25673304341191994;67.94522011139085
71642;BME280;60657;50.122;14.468;2023-02-28T03:36:07;99436.25487847914;;;0.14724956130311995;67.96047913328755
71642;BME280;60657;50.122;14.468;2023-02-28T03:39:31;99430.34339589407;;;0.08850232700083893;68.03868162050813
71642;BME280;60657;50.122;14.468;2023-02-28T03:43:08;99432.71318604563;;;0.032425421530483334;67.86892500190737
71642;BME280;60657;50.122;14.468;2023-02-28T03:46:31;99430.86014211405;;;-0.02365148393987937;68.23895628290227
71642;BME280;60657;50.122;14.468;2023-02-28T03:49:56;99428.7595460802;;;-0.07705806057831666;68.33813992523079
71642;BME280;60657;50.122;14.468;2023-02-28T03:53:22;99431.80717407016;;;-0.11978332188906649;68.5288776989395
71642;BME280;60657;50.122;14.468;2023-02-28T03:56:46;99432.40299901215;;;-0.11711299305714817;68.43541618982223
71642;BME280;60657;50.122;14.468;2023-02-28T04:00:12;99426.65679342797;;;-0.11978332188906649;68.52697032120241
71642;BME280;60657;50.122;14.468;2023-02-28T04:03:37;99437.138150305;;;-0.1972228580148041;68.94468604562448
71642;BME280;60657;50.122;14.468;2023-02-28T04:07:00;99432.07017262728;;;-0.1785305561913475;68.70626382848859
71642;BME280;60657;50.122;14.468;2023-02-28T04:10:18;99445.34087763746;;;-0.26131074998092885;68.82261387045091
71642;BME280;60657;50.122;14.468;2023-02-28T04:13:34;99440.69270857975;;;-0.28267338063630376;69.02861066605631
71642;BME280;60657;50.122;14.468;2023-02-28T04:16:50;99446.60610833004;;;-0.32005798428320986;69.25177386129549
71642;BME280;60657;50.122;14.468;2023-02-28T04:20:06;99439.33834647603;;;-0.2346074616617102;69.1163500419623
71642;BME280;60657;50.122;14.468;2023-02-28T04:23:23;99440.18306680195;;;-0.26398107881284716;69.16975661860074
71642;BME280;60657;50.122;14.468;2023-02-28T04:26:38;99442.29827261031;;;-0.32005798428320986;69.29755092698558
71642;BME280;60657;50.122;14.468;2023-02-28T04:29:55;99441.36940470104;;;-0.4001678492408658;69.66567483024338
71642;BME280;60657;50.122;14.468;2023-02-28T04:33:11;99443.31337532664;;;-0.4001678492408658;69.59128709849699
71642;BME280;60657;50.122;14.468;2023-02-28T04:36:27;99446.26994264548;;;-0.33607995727474105;69.50545510032806
71642;BME280;60657;50.122;14.468;2023-02-28T04:39:43;99443.98881284958;;;-0.4001678492408658;69.73243305104143
71642;BME280;60657;50.122;14.468;2023-02-28T04:42:59;99446.6081331615;;;-0.40817883573662783;69.74387731746396
71642;BME280;60657;50.122;14.468;2023-02-28T04:46:14;99445.76326991241;;;-0.4028381780727841;69.61226825360494
71642;BME280;60657;50.122;14.468;2023-02-28T04:49:30;99459.87247274643;;;-0.39482719157702206;69.82207980468452
71642;BME280;60657;50.122;14.468;2023-02-28T04:52:46;99452.94307916526;;;-0.40817883573662783;70.19211108567941
71642;BME280;60657;50.122;14.468;2023-02-28T04:56:02;99448.04351281426;;;-0.4989700160219712;70.21690699626154
71642;BME280;60657;50.122;14.468;2023-02-28T04:59:19;99458.41915770796;;;-0.5577172503242522;70.3847562371252
71642;BME280;60657;50.122;14.468;2023-02-28T05:02:34;99453.43491904723;;;-0.5977721828030838;70.67467765316243
71642;BME280;60657;50.122;14.468;2023-02-28T05:05:50;99457.91816272015;;;-0.6004425116350021;70.73952849622339
71642;BME280;60657;50.122;14.468;2023-02-28T05:09:06;99461.04053629238;;;-0.6404974441138336;70.96269169146258
71642;BME280;60657;50.122;14.468;2023-02-28T05:12:22;99466.85035400081;;;-0.6912336919203454;70.89021133745327
71642;BME280;60657;50.122;14.468;2023-02-28T05:15:37;99465.83117690313;;;-0.7259479667353332;70.91691462577249
71642;BME280;60657;50.122;14.468;2023-02-28T05:18:53;99467.3473449422;;;-0.7259479667353332;70.89784084840161
71642;BME280;60657;50.122;14.468;2023-02-28T05:22:13;99472.38845198118;;;-0.8648050659952702;71.0180056458381
71642;BME280;60657;50.122;14.468;2023-02-28T05:25:30;99462.77155726742;;;-0.8648050659952702;71.22972457465477
71642;BME280;60657;50.122;14.468;2023-02-28T05:28:46;99471.63104865493;;;-0.8354314488441261;71.12100404364081
71642;BME280;60657;50.122;14.468;2023-02-28T05:32:02;99477.46057641022;;;-0.8754863813229576;71.3708705271992
71642;BME280;60657;50.122;14.468;2023-02-28T05:35:18;99476.70310311412;;;-0.8381017776760515;71.2392614633402
71642;BME280;60657;50.122;14.468;2023-02-28T05:38:34;99483.02611393642;;;-0.9021896696421763;71.16296635385672
71642;BME280;60657;50.122;14.468;2023-02-28T05:41:49;99484.85445570547;;;-0.9555962462806136;71.33081559472038
71642;BME280;60657;50.122;14.468;2023-02-28T05:45:06;99488.76775396017;;;-0.8594644083314265;71.21828030823224
71642;BME280;60657;50.122;14.468;2023-02-28T05:48:23;99480.80456412274;;;-0.9636072327763756;71.28122377355612
71642;BME280;60657;50.122;14.468;2023-02-28T05:51:38;99484.54045416677;;;-0.9315632867933132;71.23544670786603
71642;BME280;60657;50.122;14.468;2023-02-28T05:54:54;99496.86910890222;;;-0.8220798046845204;71.00465400167849
71642;BME280;60657;50.122;14.468;2023-02-28T05:58:10;99493.1320030334;;;-0.9529259174486882;72.45616845960174
71642;BME280;60657;50.122;14.468;2023-02-28T06:01:30;99502.47637988615;;;-0.9582665751125319;71.51010910200657
71642;BME280;60657;50.122;14.468;2023-02-28T06:04:48;99499.09372235445;;;-1.0330357824063512;71.3422598611429
71642;BME280;60657;50.122;14.468;2023-02-28T06:08:04;99492.05936408414;;;-0.9983215075913634;70.75478751812008
71642;BME280;60657;50.122;14.468;2023-02-28T06:11:20;99502.38680043971;;;-0.915541313801782;70.77195391775388
71642;BME280;60657;50.122;14.468;2023-02-28T06:14:36;99504.8813521555;;;-0.790035858701458;70.06622415503166
71642;BME280;60657;50.122;14.468;2023-02-28T06:17:51;99506.2587618992;;;-0.7339589532310953;69.82970931563287
71642;BME280;60657;50.122;14.468;2023-02-28T06:21:07;99520.22895036738;;;-0.59243152513924;69.34523537041275
71642;BME280;60657;50.122;14.468;2023-02-28T06:24:23;99517.39708326208;;;-0.39482719157702206;68.74250400549325
71642;BME280;60657;50.122;14.468;2023-02-28T06:27:43;99522.40040150948;;;-0.2346074616617102;67.9967193102922
71642;BME280;60657;50.122;14.468;2023-02-28T06:30:59;99524.26276519525;;;-0.2506294346532414;67.28145265888456
71642;BME280;60657;50.122;14.468;2023-02-28T06:34:15;99534.92012257174;;;-0.007629510948348184;66.90569924467842
71642;BME280;60657;50.122;14.468;2023-02-28T06:37:31;99534.07635544802;;;0.1392385748073579;65.98443579766537
71642;BME280;60657;50.122;14.468;2023-02-28T06:40:52;99530.50953649759;;;0.3421835660334196;65.27107652399481
71642;BME280;60657;50.122;14.468;2023-02-28T06:44:11;99532.97392448678;;;0.3849088273441694;64.69504844739453
71642;BME280;60657;50.122;14.468;2023-02-28T06:47:30;99538.03345146583;;;0.5825131609063874;64.09231708247502
71642;BME280;60657;50.122;14.468;2023-02-28T06:50:46;99535.99389405733;;;0.5878538185702311;63.79095140001526
71642;BME280;60657;50.122;14.468;2023-02-28T06:54:03;99541.72151994568;;;0.7507438773174613;63.06996261539635
71642;BME280;60657;50.122;14.468;2023-02-28T06:57:20;99543.21795394878;;;0.7507438773174613;62.509193560692765
71642;BME280;60657;50.122;14.468;2023-02-28T07:00:35;99538.95486590137;;;0.9510185397116047;62.69993133440147
71642;BME280;60657;50.122;14.468;2023-02-28T07:03:51;99534.2366482825;;;1.1245899137865294;62.06668192568857
71642;BME280;60657;50.122;14.468;2023-02-28T07:07:07;99539.7940872978;;;1.4450293736171531;61.01953154802777
71642;BME280;60657;50.122;14.468;2023-02-28T07:10:23;99532.73451771487;;;1.58388647287709;60.22987716487373
71642;BME280;60657;50.122;14.468;2023-02-28T07:13:38;99536.88091437871;;;1.5972381170366958;60.34050507362478
71642;BME280;60657;50.122;14.468;2023-02-28T07:16:54;99554.84433936035;;;1.3649195086594972;60.17074845502404
71642;BME280;60657;50.122;14.468;2023-02-28T07:20:10;99550.70335552383;;;1.5812161440451646;60.12115663385977
71642;BME280;60657;50.122;14.468;2023-02-28T07:23:27;99538.56073108045;;;1.781490806439308;58.391165026321815
71642;BME280;60657;50.122;14.468;2023-02-28T07:26:43;99546.3646449879;;;1.949721522850382;58.324406805523765
71642;BME280;60657;50.122;14.468;2023-02-28T07:29:58;99544.42322855147;;;2.1526665140764507;57.34592202639811
71642;BME280;60657;50.122;14.468;2023-02-28T07:33:18;99551.54495061768;;;2.2755016403448565;56.914854657816434
71642;BME280;60657;50.122;14.468;2023-02-28T07:36:34;99564.16475867383;;;2.425040054932481;56.03173876554513
71642;BME280;60657;50.122;14.468;2023-02-28T07:39:50;99559.67411672439;;;2.6146334019989297;55.60448615243763
71642;BME280;60657;50.122;14.468;2023-02-28T07:43:06;99554.90005347093;;;2.697413595788511;55.49385824368658
71642;BME280;60657;50.122;14.468;2023-02-28T07:46:21;99554.18836286015;;;2.91103990234226;54.07476920729381
71642;BME280;60657;50.122;14.468;2023-02-28T07:49:37;99558.83586995573;;;2.9644464789806975;54.023270008392466
71642;BME280;60657;50.122;14.468;2023-02-28T07:52:53;99559.33082372883;;;2.8255893797207605;53.9584191653315
71642;BME280;60657;50.122;14.468;2023-02-28T07:56:09;99566.43215247261;;;2.9804684519722286;53.97749294270237
71642;BME280;60657;50.122;14.468;2023-02-28T07:59:25;99556.30384944078;;;3.0312046997787476;54.088120851453425
71642;BME280;60657;50.122;14.468;2023-02-28T08:02:41;99555.30829777064;;;3.004501411459529;53.84588387884337
71642;BME280;60657;50.122;14.468;2023-02-28T08:05:57;99565.91471539221;;;3.1994354161898215;53.12298771648737
71642;BME280;60657;50.122;14.468;2023-02-28T08:09:12;99556.70019252565;;;3.2288090333409656;53.079118028534374
71642;BME280;60657;50.122;14.468;2023-02-28T08:12:28;99551.065551402;;;3.4103913939116524;52.60036621652552
71642;BME280;60657;50.122;14.468;2023-02-28T08:15:44;99546.47644887192;;;3.2928969253070903;52.05485618371863
71642;BME280;60657;50.122;14.468;2023-02-28T08:19:00;99548.12519219593;;;3.2795452811474775;52.28374151216907
71642;BME280;60657;50.122;14.468;2023-02-28T08:22:16;99540.57054918789;;;3.3676661326009025;51.789730678263524
71642;BME280;60657;50.122;14.468;2023-02-28T08:25:32;99545.7000714715;;;3.407721065079727;52.11589227130541
71642;BME280;60657;50.122;14.468;2023-02-28T08:28:48;99543.39197743521;;;3.6293583581292452;51.90608072022583
71642;BME280;60657;50.122;14.468;2023-02-28T08:32:04;99547.54381146158;;;3.685435263599601;50.90661478599222
71642;BME280;60657;50.122;14.468;2023-02-28T08:35:21;99561.04824268902;;;3.8723582818341313;50.8207827878233
71642;BME280;60657;50.122;14.468;2023-02-28T08:38:38;99568.70505581761;;;3.8563363088426;50.23521782253758
71642;BME280;60657;50.122;14.468;2023-02-28T08:41:53;99554.52416109784;;;4.486533913176167;49.447470817120625
71642;BME280;60657;50.122;14.468;2023-02-28T08:45:09;99537.60836918473;;;4.873731593804834;48.48424505989166
71642;BME280;60657;50.122;14.468;2023-02-28T08:48:27;99536.47400753123;;;4.897764553292134;47.97306782635233
71642;BME280;60657;50.122;14.468;2023-02-28T08:51:44;99565.63097874509;;;4.668116273746854;48.270618753337914
71642;BME280;60657;50.122;14.468;2023-02-28T08:55:00;99545.99887833724;;;4.945830472266728;47.95017929350728
71642;BME280;60657;50.122;14.468;2023-02-28T08:58:17;99539.46773866653;;;4.983215075913634;46.97741664759289
71642;BME280;60657;50.122;14.468;2023-02-28T09:01:32;99548.50604389537;;;5.159456778820477;47.06515602349889
71642;BME280;60657;50.122;14.468;2023-02-28T09:04:49;99538.47074217154;;;5.295643549248496;47.047989623865114
71642;BME280;60657;50.122;14.468;2023-02-28T09:08:04;99540.21276141731;;;5.493247882810714;46.59594110017548
71642;BME280;60657;50.122;14.468;2023-02-28T09:11:20;99543.6965011709;;;5.495918211642632;45.75478751812009
71642;BME280;60657;50.122;14.468;2023-02-28T09:14:36;99540.19381938977;;;5.781643396658275;46.03898680094606
71642;BME280;60657;50.122;14.468;2023-02-28T09:17:54;99527.31395986688;;;5.984588387884337;45.74143587396048
71642;BME280;60657;50.122;14.468;2023-02-28T09:21:10;99530.35762587978;;;6.155489433127336;44.902189669642176
71642;BME280;60657;50.122;14.468;2023-02-28T09:24:29;99523.62187457328;;;6.131456473640043;44.247959105821316
71642;BME280;60657;50.122;14.468;2023-02-28T09:27:44;99526.01695832908;;;6.198214694438086;43.24658579385061
71642;BME280;60657;50.122;14.468;2023-02-28T09:31:00;99524.68284858347;;;6.398489356832229;42.76401922636759
71642;BME280;60657;50.122;14.468;2023-02-28T09:34:17;99518.46648229081;;;6.62012664988174;42.90516517891203
71642;BME280;60657;50.122;14.468;2023-02-28T09:37:32;99519.73098287481;;;6.85778591592279;42.0411230640116
71642;BME280;60657;50.122;14.468;2023-02-28T09:40:49;99529.81102513958;;;7.301060502021819;41.61959258411536
71642;BME280;60657;50.122;14.468;2023-02-28T09:44:09;99518.12289920142;;;7.429236285954069;40.69451438162814
71642;BME280;60657;50.122;14.468;2023-02-28T09:47:36;99518.8317468946;;;7.5146868085755685;41.00160219729916
71642;BME280;60657;50.122;14.468;2023-02-28T09:50:59;99524.45675964488;;;7.389181353475244;40.89860379949645
71642;BME280;60657;50.122;14.468;2023-02-28T09:54:19;99523.28245384332;;;7.08743419546807;40.61440451667048
71642;BME280;60657;50.122;14.468;2023-02-28T09:57:38;99524.67279880661;;;7.183566033417257;40.32066834515908
71642;BME280;60657;50.122;14.468;2023-02-28T10:00:57;99530.99355743654;;;7.188906691081101;40.57053482871748
71642;BME280;60657;50.122;14.468;2023-02-28T10:04:23;99535.71080116063;;;6.72961013199054;40.410315098802165
71642;BME280;60657;50.122;14.468;2023-02-28T10:08:00;99530.56467732521;;;6.81506065461204;41.10841535057603
71642;BME280;60657;50.122;14.468;2023-02-28T10:11:22;99531.17659770598;;;7.28236820019837;40.599145494773786
71642;BME280;60657;50.122;14.468;2023-02-28T10:14:42;99530.965407014;;;7.560082398718244;39.8304722667277
71642;BME280;60657;50.122;14.468;2023-02-28T10:18:02;99521.61963661089;;;7.856488899061567;39.57488364995804
71642;BME280;60657;50.122;14.468;2023-02-28T10:21:26;99516.74438808666;;;8.179598687724116;38.96643015182727
71642;BME280;60657;50.122;14.468;2023-02-28T10:24:47;99521.06545378825;;;8.265049210345616;39.132372014953845
71642;BME280;60657;50.122;14.468;2023-02-28T10:28:09;99522.62917956694;;;8.302433813992522;38.392309452964064
71642;BME280;60657;50.122;14.468;2023-02-28T10:31:27;99522.92532264296;;;7.856488899061567;38.91874570840009
71642;BME280;60657;50.122;14.468;2023-02-28T10:34:44;99518.42283854609;;;7.789730678263524;39.54818036163882
71642;BME280;60657;50.122;14.468;2023-02-28T10:38:04;99516.17744569338;;;8.427939269092853;39.040817883573666
71642;BME280;60657;50.122;14.468;2023-02-28T10:41:31;99513.80102742347;;;7.8591592278934925;39.38605325398642
71642;BME280;60657;50.122;14.468;2023-02-28T10:44:48;99517.78500293166;;;7.963302052338442;39.403219653620205
71642;BME280;60657;50.122;14.468;2023-02-28T10:48:27;99501.08606831272;;;8.032730601968417;39.189593347066456
71642;BME280;60657;50.122;14.468;2023-02-28T10:51:49;99503.13537381189;;;8.016708628976886;39.35362783245594
71642;BME280;60657;50.122;14.468;2023-02-28T10:55:14;99509.7408769961;;;7.973983367666129;39.41275654230564
71642;BME280;60657;50.122;14.468;2023-02-28T10:58:44;99497.84034536938;;;8.302433813992522;38.97787441824979
71642;BME280;60657;50.122;14.468;2023-02-28T11:02:15;99488.18388143709;;;8.700312809948883;38.25307087815671
71642;BME280;60657;50.122;14.468;2023-02-28T11:05:46;99490.1485916309;;;8.614862287327384;39.02555886167697
71642;BME280;60657;50.122;14.468;2023-02-28T11:09:03;99489.89508692843;;;8.860532539864195;37.89639124132143
71642;BME280;60657;50.122;14.468;2023-02-28T11:12:35;99491.64233037764;;;8.732356755931946;38.338902876325626
71642;BME280;60657;50.122;14.468;2023-02-28T11:15:54;99484.70778766024;;;9.261081864652475;37.6503395132372
71642;BME280;60657;50.122;14.468;2023-02-28T11:19:16;99486.12810903022;;;9.317158770122838;37.32227054245823
71642;BME280;60657;50.122;14.468;2023-02-28T11:22:38;99491.40033095937;;;8.937972075989926;37.89448386358434
71642;BME280;60657;50.122;14.468;2023-02-28T11:26:01;99481.34892132803;;;9.074158846417944;37.732356755931946
71642;BME280;60657;50.122;14.468;2023-02-28T11:29:20;99470.68806985093;;;9.317158770122838;37.11245899137865
71642;BME280;60657;50.122;14.468;2023-02-28T11:32:38;99475.6308268405;;;9.2637521934844;36.90646219577325
71642;BME280;60657;50.122;14.468;2023-02-28T11:36:09;99458.8388266798;;;9.071488517586026;37.55497062638285
71642;BME280;60657;50.122;14.468;2023-02-28T11:39:28;99453.69875429537;;;9.859235523002972;36.87403677424277
71642;BME280;60657;50.122;14.468;2023-02-28T11:42:47;99455.72691041077;;;9.942015716792554;36.217898832684824
71642;BME280;60657;50.122;14.468;2023-02-28T11:46:19;99452.44993283362;;;9.74174105439841;35.99092088197146
71642;BME280;60657;50.122;14.468;2023-02-28T11:49:47;99444.68724073216;;;10.043488212405585;35.88792248416876
71642;BME280;60657;50.122;14.468;2023-02-28T11:53:32;99433.99461917218;;;9.944686045624472;35.500724803540095
71642;BME280;60657;50.122;14.468;2023-02-28T11:57:09;99451.05481955246;;;9.99809262226291;35.55985351338979
71642;BME280;60657;50.122;14.468;2023-02-28T12:00:50;99447.54557413998;;;9.821850919356066;35.685740444037535
71642;BME280;60657;50.122;14.468;2023-02-28T12:04:25;99435.7409201269;;;9.837872892347598;36.2064545662623